sensor_id;sensor_type;location;lat;lon;timestamp;pressure;altitude;pressure_sealevel;temperature;humidity
47556;BME280;33291;46.222;26.460;2023-08-12T00:00:50;97111.81;;;13.38;100.00
47556;BME280;33291;46.222;26.460;2023-08-12T00:03:15;97105.19;;;13.33;100.00
47556;BME280;33291;46.222;26.460;2023-08-12T00:05:41;97100.22;;;13.30;100.00
47556;BME280;33291;46.222;26.460;2023-08-12T00:08:08;97111.81;;;13.38;100.00
47556;BME280;33291;46.222;26.460;2023-08-12T00:10:33;97097.19;;;13.25;100.00
47556;BME280;33291;46.222;26.460;2023-08-12T00:12:59;97095.94;;;13.29;100.00
47556;BME280;33291;46.222;26.460;2023-08-12T00:15:25;97102.69;;;13.32;100.00
47556;BME280;33291;46.222;26.460;2023-08-12T00:17:50;97102.59;;;13.33;100.00
47556;BME280;33291;46.222;26.460;2023-08-12T00:20:16;97110.13;;;13.27;100.00
47556;BME280;33291;46.222;26.460;2023-08-12T00:22:41;97110.00;;;13.19;100.00
47556;BME280;33291;46.222;26.460;2023-08-12T00:25:07;97101.06;;;13.11;100.00
47556;BME280;33291;46.222;26.460;2023-08-12T00:27:33;97094.34;;;13.09;100.00
47556;BME280;33291;46.222;26.460;2023-08-12T00:29:59;97103.84;;;13.00;100.00
47556;BME280;33291;46.222;26.460;2023-08-12T00:32:24;97091.19;;;12.95;100.00
47556;BME280;33291;46.222;26.460;2023-08-12T00:34:49;97111.69;;;13.00;100.00
47556;BME280;33291;46.222;26.460;2023-08-12T00:37:15;97092.13;;;12.94;100.00
47556;BME280;33291;46.222;26.460;2023-08-12T00:39:40;97095.84;;;13.02;100.00
47556;BME280;33291;46.222;26.460;2023-08-12T00:42:06;97100.25;;;13.01;100.00
47556;BME280;33291;46.222;26.460;2023-08-12T00:44:31;97106.03;;;13.05;100.00
47556;BME280;33291;46.222;26.460;2023-08-12T00:46:57;97094.63;;;13.06;100.00
47556;BME280;33291;46.222;26.460;2023-08-12T00:49:23;97095.16;;;13.09;100.00
47556;BME280;33291;46.222;26.460;2023-08-12T00:51:50;97093.34;;;13.10;100.00
47556;BME280;33291;46.222;26.460;2023-08-12T00:54:16;97104.25;;;13.15;100.00
47556;BME280;33291;46.222;26.460;2023-08-12T00:56:43;97095.00;;;13.11;100.00
47556;BME280;33291;46.222;26.460;2023-08-12T00:59:09;97068.59;;;12.94;100.00
47556;BME280;33291;46.222;26.460;2023-08-12T01:01:39;97097.22;;;13.15;100.00
47556;BME280;33291;46.222;26.460;2023-08-12T01:04:05;97110.16;;;13.17;100.00
47556;BME280;33291;46.222;26.460;2023-08-12T01:06:31;97101.63;;;13.15;100.00
47556;BME280;33291;46.222;26.460;2023-08-12T01:08:56;97099.97;;;13.14;100.00
47556;BME280;33291;46.222;26.460;2023-08-12T01:11:39;97108.22;;;13.19;100.00
47556;BME280;33291;46.222;26.460;2023-08-12T01:16:39;97088.41;;;13.17;100.00
47556;BME280;33291;46.222;26.460;2023-08-12T01:19:06;97100.50;;;13.18;100.00
47556;BME280;33291;46.222;26.460;2023-08-12T01:21:36;97083.75;;;13.10;100.00
47556;BME280;33291;46.222;26.460;2023-08-12T01:24:07;97091.69;;;13.19;100.00
47556;BME280;33291;46.222;26.460;2023-08-12T01:26:32;97100.25;;;13.11;100.00
47556;BME280;33291;46.222;26.460;2023-08-12T01:28:58;97095.28;;;13.08;100.00
47556;BME280;33291;46.222;26.460;2023-08-12T01:31:38;97092.81;;;13.06;100.00
47556;BME280;33291;46.222;26.460;2023-08-12T01:36:46;97084.72;;;12.90;100.00
47556;BME280;33291;46.222;26.460;2023-08-12T01:39:12;97092.81;;;12.96;100.00
47556;BME280;33291;46.222;26.460;2023-08-12T01:41:37;97089.38;;;12.96;100.00
47556;BME280;33291;46.222;26.460;2023-08-12T01:44:03;97097.75;;;13.00;100.00
47556;BME280;33291;46.222;26.460;2023-08-12T01:46:30;97089.38;;;12.96;100.00
47556;BME280;33291;46.222;26.460;2023-08-12T01:48:56;97088.13;;;12.90;100.00
47556;BME280;33291;46.222;26.460;2023-08-12T01:51:21;97101.66;;;12.95;100.00
47556;BME280;33291;46.222;26.460;2023-08-12T01:53:47;97089.66;;;12.93;100.00
47556;BME280;33291;46.222;26.460;2023-08-12T01:56:13;97095.97;;;12.90;100.00
47556;BME280;33291;46.222;26.460;2023-08-12T01:58:38;97066.41;;;12.70;100.00
47556;BME280;33291;46.222;26.460;2023-08-12T02:01:03;97099.88;;;12.86;100.00
47556;BME280;33291;46.222;26.460;2023-08-12T02:03:29;97095.19;;;12.80;100.00
47556;BME280;33291;46.222;26.460;2023-08-12T02:05:54;97097.25;;;12.67;100.00
47556;BME280;33291;46.222;26.460;2023-08-12T02:08:20;97107.00;;;12.74;100.00
47556;BME280;33291;46.222;26.460;2023-08-12T02:10:45;97102.47;;;12.76;100.00
47556;BME280;33291;46.222;26.460;2023-08-12T02:13:11;97089.81;;;12.72;100.00
47556;BME280;33291;46.222;26.460;2023-08-12T02:15:36;97119.53;;;12.80;100.00
47556;BME280;33291;46.222;26.460;2023-08-12T02:18:02;97111.69;;;12.80;100.00
47556;BME280;33291;46.222;26.460;2023-08-12T02:20:28;97113.22;;;12.83;100.00
47556;BME280;33291;46.222;26.460;2023-08-12T02:22:53;97112.63;;;12.79;100.00
47556;BME280;33291;46.222;26.460;2023-08-12T02:25:19;97120.47;;;12.79;100.00
47556;BME280;33291;46.222;26.460;2023-08-12T02:27:44;97125.44;;;12.83;100.00
47556;BME280;33291;46.222;26.460;2023-08-12T02:30:10;97124.22;;;12.87;100.00
47556;BME280;33291;46.222;26.460;2023-08-12T02:32:36;97122.53;;;12.86;100.00
47556;BME280;33291;46.222;26.460;2023-08-12T02:35:01;97125.31;;;12.84;100.00
47556;BME280;33291;46.222;26.460;2023-08-12T02:37:27;97131.50;;;12.83;100.00
47556;BME280;33291;46.222;26.460;2023-08-12T02:39:52;97125.03;;;12.77;100.00
47556;BME280;33291;46.222;26.460;2023-08-12T02:42:18;97120.50;;;12.70;100.00
47556;BME280;33291;46.222;26.460;2023-08-12T02:44:43;97106.59;;;12.59;100.00
47556;BME280;33291;46.222;26.460;2023-08-12T02:47:09;97096.00;;;12.51;100.00
47556;BME280;33291;46.222;26.460;2023-08-12T02:49:34;97101.09;;;12.53;100.00
47556;BME280;33291;46.222;26.460;2023-08-12T02:51:59;97092.69;;;12.49;100.00
47556;BME280;33291;46.222;26.460;2023-08-12T02:54:25;97120.78;;;12.67;100.00
47556;BME280;33291;46.222;26.460;2023-08-12T02:56:50;97125.00;;;12.68;100.00
47556;BME280;33291;46.222;26.460;2023-08-12T02:59:16;97120.78;;;12.67;100.00
47556;BME280;33291;46.222;26.460;2023-08-12T03:01:42;97130.00;;;12.71;100.00
47556;BME280;33291;46.222;26.460;2023-08-12T03:04:07;97124.19;;;12.67;100.00
47556;BME280;33291;46.222;26.460;2023-08-12T03:06:33;97123.38;;;12.67;100.00
47556;BME280;33291;46.222;26.460;2023-08-12T03:08:58;97133.00;;;12.66;100.00
47556;BME280;33291;46.222;26.460;2023-08-12T03:11:24;97139.59;;;12.60;100.00
47556;BME280;33291;46.222;26.460;2023-08-12T03:13:49;97143.84;;;12.61;100.00
47556;BME280;33291;46.222;26.460;2023-08-12T03:16:15;97137.69;;;12.62;100.00
47556;BME280;33291;46.222;26.460;2023-08-12T03:18:41;97146.19;;;12.65;100.00
47556;BME280;33291;46.222;26.460;2023-08-12T03:21:08;97149.38;;;12.68;100.00
47556;BME280;33291;46.222;26.460;2023-08-12T03:23:35;97154.75;;;12.67;100.00
47556;BME280;33291;46.222;26.460;2023-08-12T03:26:00;97164.66;;;12.73;100.00
47556;BME280;33291;46.222;26.460;2023-08-12T03:28:26;97157.63;;;12.73;100.00
47556;BME280;33291;46.222;26.460;2023-08-12T03:30:52;97156.28;;;12.79;100.00
47556;BME280;33291;46.222;26.460;2023-08-12T03:33:18;97164.78;;;12.81;100.00
47556;BME280;33291;46.222;26.460;2023-08-12T03:35:47;97170.72;;;12.83;100.00
47556;BME280;33291;46.222;26.460;2023-08-12T03:38:13;97157.94;;;12.80;100.00
47556;BME280;33291;46.222;26.460;2023-08-12T03:40:39;97159.16;;;12.76;100.00
47556;BME280;33291;46.222;26.460;2023-08-12T03:43:05;97158.06;;;12.78;100.00
47556;BME280;33291;46.222;26.460;2023-08-12T03:45:31;97166.72;;;12.79;100.00
47556;BME280;33291;46.222;26.460;2023-08-12T03:47:56;97151.16;;;12.68;100.00
47556;BME280;33291;46.222;26.460;2023-08-12T03:50:22;97165.50;;;12.83;100.00
47556;BME280;33291;46.222;26.460;2023-08-12T03:52:47;97167.41;;;12.81;100.00
47556;BME280;33291;46.222;26.460;2023-08-12T03:55:13;97161.50;;;12.79;100.00
47556;BME280;33291;46.222;26.460;2023-08-12T03:57:38;97174.84;;;12.86;100.00
47556;BME280;33291;46.222;26.460;2023-08-12T04:00:04;97164.13;;;12.79;100.00
47556;BME280;33291;46.222;26.460;2023-08-12T04:02:32;97167.53;;;12.79;100.00
47556;BME280;33291;46.222;26.460;2023-08-12T04:04:57;97164.13;;;12.79;100.00
47556;BME280;33291;46.222;26.460;2023-08-12T04:07:23;97169.47;;;12.87;100.00
47556;BME280;33291;46.222;26.460;2023-08-12T04:09:49;97171.00;;;12.90;100.00
47556;BME280;33291;46.222;26.460;2023-08-12T04:12:14;97171.41;;;12.95;100.00
47556;BME280;33291;46.222;26.460;2023-08-12T04:14:40;97172.09;;;12.97;100.00
47556;BME280;33291;46.222;26.460;2023-08-12T04:17:06;97172.78;;;12.99;100.00
47556;BME280;33291;46.222;26.460;2023-08-12T04:19:31;97176.78;;;13.03;100.00
47556;BME280;33291;46.222;26.460;2023-08-12T04:21:57;97174.56;;;13.08;100.00
47556;BME280;33291;46.222;26.460;2023-08-12T04:24:22;97165.22;;;13.06;100.00
47556;BME280;33291;46.222;26.460;2023-08-12T04:26:48;97163.97;;;13.10;100.00
47556;BME280;33291;46.222;26.460;2023-08-12T04:29:13;97169.91;;;13.12;100.00
47556;BME280;33291;46.222;26.460;2023-08-12T04:31:40;97171.00;;;13.09;100.00
47556;BME280;33291;46.222;26.460;2023-08-12T04:34:05;97173.75;;;13.08;100.00
47556;BME280;33291;46.222;26.460;2023-08-12T04:36:31;97169.19;;;13.10;100.00
47556;BME280;33291;46.222;26.460;2023-08-12T04:38:56;97171.00;;;13.19;100.00
47556;BME280;33291;46.222;26.460;2023-08-12T04:41:22;97169.75;;;13.33;100.00
47556;BME280;33291;46.222;26.460;2023-08-12T04:43:49;97169.09;;;13.41;100.00
47556;BME280;33291;46.222;26.460;2023-08-12T04:46:15;97169.66;;;13.35;100.00
47556;BME280;33291;46.222;26.460;2023-08-12T04:48:40;97163.44;;;13.36;100.00
47556;BME280;33291;46.222;26.460;2023-08-12T04:51:06;97167.16;;;13.43;100.00
47556;BME280;33291;46.222;26.460;2023-08-12T04:53:32;97163.16;;;13.48;100.00
47556;BME280;33291;46.222;26.460;2023-08-12T04:55:57;97165.06;;;13.56;100.00
47556;BME280;33291;46.222;26.460;2023-08-12T04:58:23;97153.31;;;13.60;100.00
47556;BME280;33291;46.222;26.460;2023-08-12T05:00:50;97165.31;;;13.73;100.00
47556;BME280;33291;46.222;26.460;2023-08-12T05:03:17;97161.28;;;13.78;100.00
47556;BME280;33291;46.222;26.460;2023-08-12T05:05:42;97162.88;;;13.89;100.00
47556;BME280;33291;46.222;26.460;2023-08-12T05:08:08;97162.59;;;13.92;100.00
47556;BME280;33291;46.222;26.460;2023-08-12T05:10:34;97160.53;;;13.96;100.00
47556;BME280;33291;46.222;26.460;2023-08-12T05:12:59;97160.34;;;14.07;100.00
47556;BME280;33291;46.222;26.460;2023-08-12T05:15:25;97171.75;;;14.16;100.00
47556;BME280;33291;46.222;26.460;2023-08-12T05:17:50;97164.41;;;14.19;100.00
47556;BME280;33291;46.222;26.460;2023-08-12T05:20:16;97161.91;;;14.28;100.00
47556;BME280;33291;46.222;26.460;2023-08-12T05:22:41;97143.88;;;14.25;100.00
47556;BME280;33291;46.222;26.460;2023-08-12T05:25:07;97155.66;;;14.38;100.00
47556;BME280;33291;46.222;26.460;2023-08-12T05:27:33;97158.94;;;14.40;100.00
47556;BME280;33291;46.222;26.460;2023-08-12T05:29:58;97156.94;;;14.52;100.00
47556;BME280;33291;46.222;26.460;2023-08-12T05:32:24;97151.25;;;14.57;100.00
47556;BME280;33291;46.222;26.460;2023-08-12T05:34:51;97145.16;;;14.66;100.00
47556;BME280;33291;46.222;26.460;2023-08-12T05:37:17;97153.47;;;14.80;100.00
47556;BME280;33291;46.222;26.460;2023-08-12T05:39:43;97151.22;;;14.85;100.00
47556;BME280;33291;46.222;26.460;2023-08-12T05:42:08;97146.72;;;14.95;99.80
47556;BME280;33291;46.222;26.460;2023-08-12T05:44:34;97146.28;;;15.00;99.40
47556;BME280;33291;46.222;26.460;2023-08-12T05:46:59;97155.41;;;15.14;99.08
47556;BME280;33291;46.222;26.460;2023-08-12T05:49:25;97150.41;;;15.20;98.83
47556;BME280;33291;46.222;26.460;2023-08-12T05:51:50;97150.44;;;15.28;98.81
47556;BME280;33291;46.222;26.460;2023-08-12T05:54:16;97146.56;;;15.33;98.51
47556;BME280;33291;46.222;26.460;2023-08-12T05:56:41;97141.19;;;15.42;98.14
47556;BME280;33291;46.222;26.460;2023-08-12T05:59:07;97143.44;;;15.55;97.71
47556;BME280;33291;46.222;26.460;2023-08-12T06:01:32;97111.69;;;15.49;97.62
47556;BME280;33291;46.222;26.460;2023-08-12T06:03:57;97114.53;;;15.55;96.91
47556;BME280;33291;46.222;26.460;2023-08-12T06:06:23;97145.91;;;15.83;96.66
47556;BME280;33291;46.222;26.460;2023-08-12T06:08:48;97136.78;;;15.95;94.95
47556;BME280;33291;46.222;26.460;2023-08-12T06:11:14;97136.66;;;16.05;94.36
47556;BME280;33291;46.222;26.460;2023-08-12T06:13:39;97132.31;;;16.22;93.48
47556;BME280;33291;46.222;26.460;2023-08-12T06:16:05;97124.44;;;16.30;93.34
47556;BME280;33291;46.222;26.460;2023-08-12T06:18:30;97130.22;;;16.42;93.31
47556;BME280;33291;46.222;26.460;2023-08-12T06:20:56;97133.88;;;16.49;92.22
47556;BME280;33291;46.222;26.460;2023-08-12T06:23:21;97137.03;;;16.61;92.50
47556;BME280;33291;46.222;26.460;2023-08-12T06:25:46;97124.53;;;16.63;91.98
47556;BME280;33291;46.222;26.460;2023-08-12T06:28:12;97131.78;;;16.78;91.98
47556;BME280;33291;46.222;26.460;2023-08-12T06:30:37;97135.63;;;16.92;91.76
47556;BME280;33291;46.222;26.460;2023-08-12T06:33:03;97131.69;;;17.04;90.65
47556;BME280;33291;46.222;26.460;2023-08-12T06:35:29;97114.09;;;17.13;85.08
47556;BME280;33291;46.222;26.460;2023-08-12T06:37:54;97130.03;;;17.36;81.12
47556;BME280;33291;46.222;26.460;2023-08-12T06:40:20;97130.69;;;17.46;82.25
47556;BME280;33291;46.222;26.460;2023-08-12T06:42:45;97120.75;;;17.56;80.00
47556;BME280;33291;46.222;26.460;2023-08-12T06:45:11;97121.22;;;17.68;79.97
47556;BME280;33291;46.222;26.460;2023-08-12T06:47:36;97121.69;;;17.80;77.45
47556;BME280;33291;46.222;26.460;2023-08-12T06:50:02;97116.25;;;17.90;73.45
47556;BME280;33291;46.222;26.460;2023-08-12T06:52:28;97119.53;;;18.00;74.89
47556;BME280;33291;46.222;26.460;2023-08-12T06:54:53;97112.53;;;18.16;72.76
47556;BME280;33291;46.222;26.460;2023-08-12T06:57:18;97093.56;;;18.20;70.52
47556;BME280;33291;46.222;26.460;2023-08-12T06:59:44;97112.91;;;18.44;67.92
47556;BME280;33291;46.222;26.460;2023-08-12T07:02:09;97116.78;;;18.56;68.50
47556;BME280;33291;46.222;26.460;2023-08-12T07:04:35;97113.09;;;18.65;65.67
47556;BME280;33291;46.222;26.460;2023-08-12T07:07:00;97099.19;;;18.72;64.02
47556;BME280;33291;46.222;26.460;2023-08-12T07:09:26;97108.03;;;18.87;62.10
47556;BME280;33291;46.222;26.460;2023-08-12T07:11:51;97110.72;;;19.02;63.01
47556;BME280;33291;46.222;26.460;2023-08-12T07:14:17;97102.56;;;19.12;61.98
47556;BME280;33291;46.222;26.460;2023-08-12T07:16:42;97103.06;;;19.30;59.02
47556;BME280;33291;46.222;26.460;2023-08-12T07:19:08;97091.50;;;19.31;57.97
47556;BME280;33291;46.222;26.460;2023-08-12T07:21:33;97101.00;;;19.41;58.24
47556;BME280;33291;46.222;26.460;2023-08-12T07:23:59;97101.91;;;19.48;57.50
47556;BME280;33291;46.222;26.460;2023-08-12T07:26:25;97086.41;;;19.45;56.71
47556;BME280;33291;46.222;26.460;2023-08-12T07:28:50;97085.16;;;19.56;57.23
47556;BME280;33291;46.222;26.460;2023-08-12T07:31:15;97093.63;;;19.66;56.55
47556;BME280;33291;46.222;26.460;2023-08-12T07:33:41;97097.31;;;19.80;55.43
47556;BME280;33291;46.222;26.460;2023-08-12T07:36:06;97083.91;;;19.81;56.14
47556;BME280;33291;46.222;26.460;2023-08-12T07:38:32;97089.72;;;19.92;56.67
47556;BME280;33291;46.222;26.460;2023-08-12T07:40:57;97077.34;;;19.92;55.47
47556;BME280;33291;46.222;26.460;2023-08-12T07:43:23;97083.44;;;20.08;54.36
47556;BME280;33291;46.222;26.460;2023-08-12T07:45:53;97073.69;;;20.08;54.00
47556;BME280;33291;46.222;26.460;2023-08-12T07:48:22;97079.94;;;20.22;52.28
47556;BME280;33291;46.222;26.460;2023-08-12T07:50:47;97081.22;;;20.26;53.21
47556;BME280;33291;46.222;26.460;2023-08-12T07:53:20;97083.00;;;20.40;51.83
47556;BME280;33291;46.222;26.460;2023-08-12T07:55:45;97092.53;;;20.56;51.66
47556;BME280;33291;46.222;26.460;2023-08-12T07:58:11;97088.31;;;20.62;51.84
47556;BME280;33291;46.222;26.460;2023-08-12T08:00:36;97085.81;;;20.75;51.15
47556;BME280;33291;46.222;26.460;2023-08-12T08:03:02;97089.63;;;20.88;50.71
47556;BME280;33291;46.222;26.460;2023-08-12T08:05:27;97069.50;;;20.93;51.10
47556;BME280;33291;46.222;26.460;2023-08-12T08:07:53;97084.50;;;21.08;50.62
47556;BME280;33291;46.222;26.460;2023-08-12T08:10:18;97085.31;;;21.08;50.54
47556;BME280;33291;46.222;26.460;2023-08-12T08:12:44;97071.00;;;21.03;50.10
47556;BME280;33291;46.222;26.460;2023-08-12T08:15:09;97061.94;;;20.90;49.19
47556;BME280;33291;46.222;26.460;2023-08-12T08:17:35;97081.69;;;20.88;50.19
47556;BME280;33291;46.222;26.460;2023-08-12T08:20:00;97075.69;;;20.79;50.37
47556;BME280;33291;46.222;26.460;2023-08-12T08:22:26;97073.63;;;20.74;51.11
47556;BME280;33291;46.222;26.460;2023-08-12T08:24:51;97070.06;;;20.67;51.08
47556;BME280;33291;46.222;26.460;2023-08-12T08:27:17;97073.53;;;20.68;52.00
47556;BME280;33291;46.222;26.460;2023-08-12T08:29:42;97071.59;;;20.76;52.36
47556;BME280;33291;46.222;26.460;2023-08-12T08:32:08;97059.84;;;20.86;52.67
47556;BME280;33291;46.222;26.460;2023-08-12T08:34:34;97054.69;;;20.77;52.06
47556;BME280;33291;46.222;26.460;2023-08-12T08:36:59;97074.09;;;21.06;51.92
47556;BME280;33291;46.222;26.460;2023-08-12T08:39:25;97064.63;;;21.19;52.12
47556;BME280;33291;46.222;26.460;2023-08-12T08:41:51;97057.00;;;21.37;50.64
47556;BME280;33291;46.222;26.460;2023-08-12T08:44:21;97058.75;;;21.52;50.55
47556;BME280;33291;46.222;26.460;2023-08-12T08:46:51;97055.16;;;21.66;49.46
47556;BME280;33291;46.222;26.460;2023-08-12T08:49:18;97048.06;;;21.73;50.16
47556;BME280;33291;46.222;26.460;2023-08-12T08:51:46;97058.06;;;21.71;50.26
47556;BME280;33291;46.222;26.460;2023-08-12T08:54:11;97048.47;;;21.70;49.84
47556;BME280;33291;46.222;26.460;2023-08-12T08:56:38;97053.78;;;21.77;49.86
47556;BME280;33291;46.222;26.460;2023-08-12T08:59:04;97051.50;;;21.67;48.36
47556;BME280;33291;46.222;26.460;2023-08-12T09:01:30;97055.16;;;21.66;48.84
47556;BME280;33291;46.222;26.460;2023-08-12T09:03:57;97048.59;;;21.62;49.09
47556;BME280;33291;46.222;26.460;2023-08-12T09:06:25;97047.56;;;21.56;49.27
47556;BME280;33291;46.222;26.460;2023-08-12T09:08:54;97024.22;;;21.45;49.04
47556;BME280;33291;46.222;26.460;2023-08-12T09:11:20;97044.56;;;21.66;49.08
47556;BME280;33291;46.222;26.460;2023-08-12T09:13:46;97044.81;;;21.71;48.88
47556;BME280;33291;46.222;26.460;2023-08-12T09:16:12;97049.47;;;21.69;48.73
47556;BME280;33291;46.222;26.460;2023-08-12T09:18:38;97051.91;;;21.64;49.11
47556;BME280;33291;46.222;26.460;2023-08-12T09:21:04;97059.00;;;21.57;49.15
47556;BME280;33291;46.222;26.460;2023-08-12T09:23:40;97058.38;;;21.55;49.61
47556;BME280;33291;46.222;26.460;2023-08-12T09:26:20;97050.16;;;21.50;49.87
47556;BME280;33291;46.222;26.460;2023-08-12T09:28:47;97052.28;;;21.61;50.06
47556;BME280;33291;46.222;26.460;2023-08-12T09:31:25;97046.00;;;21.69;50.16
47556;BME280;33291;46.222;26.460;2023-08-12T09:33:52;97039.88;;;21.68;48.76
47556;BME280;33291;46.222;26.460;2023-08-12T09:36:18;97042.34;;;21.70;48.81
47556;BME280;33291;46.222;26.460;2023-08-12T09:38:47;97033.97;;;21.66;48.73
47556;BME280;33291;46.222;26.460;2023-08-12T09:41:12;97038.00;;;21.62;48.39
47556;BME280;33291;46.222;26.460;2023-08-12T09:43:42;97043.75;;;21.65;49.44
47556;BME280;33291;46.222;26.460;2023-08-12T09:46:11;97041.91;;;21.66;48.96
47556;BME280;33291;46.222;26.460;2023-08-12T09:48:38;97039.66;;;21.63;49.12
47556;BME280;33291;46.222;26.460;2023-08-12T09:51:03;97039.25;;;21.66;49.28
47556;BME280;33291;46.222;26.460;2023-08-12T09:53:29;97031.91;;;21.68;49.09
47556;BME280;33291;46.222;26.460;2023-08-12T09:56:05;97036.47;;;21.74;48.38
47556;BME280;33291;46.222;26.460;2023-08-12T09:58:32;97034.41;;;21.70;48.84
47556;BME280;33291;46.222;26.460;2023-08-12T10:00:59;97029.44;;;21.60;48.31
47556;BME280;33291;46.222;26.460;2023-08-12T10:03:25;97009.34;;;21.44;48.46
47556;BME280;33291;46.222;26.460;2023-08-12T10:05:52;97030.03;;;21.55;49.03
47556;BME280;33291;46.222;26.460;2023-08-12T10:08:18;97027.56;;;21.54;49.24
47556;BME280;33291;46.222;26.460;2023-08-12T10:10:44;97025.72;;;21.54;49.53
47556;BME280;33291;46.222;26.460;2023-08-12T10:13:10;97032.47;;;21.57;49.78
47556;BME280;33291;46.222;26.460;2023-08-12T10:15:37;97022.50;;;21.59;49.57
47556;BME280;33291;46.222;26.460;2023-08-12T10:18:05;97023.78;;;21.70;49.28
47556;BME280;33291;46.222;26.460;2023-08-12T10:20:31;97025.59;;;21.69;49.77
47556;BME280;33291;46.222;26.460;2023-08-12T10:22:59;97019.31;;;21.70;49.89
47556;BME280;33291;46.222;26.460;2023-08-12T10:25:25;97009.69;;;21.69;49.50
47556;BME280;33291;46.222;26.460;2023-08-12T10:27:56;97014.25;;;21.82;49.11
47556;BME280;33291;46.222;26.460;2023-08-12T10:30:21;97019.41;;;21.97;48.72
47556;BME280;33291;46.222;26.460;2023-08-12T10:32:47;97012.31;;;22.11;48.49
47556;BME280;33291;46.222;26.460;2023-08-12T10:35:13;97009.75;;;22.31;48.39
47556;BME280;33291;46.222;26.460;2023-08-12T10:37:39;97006.09;;;22.45;48.32
47556;BME280;33291;46.222;26.460;2023-08-12T10:40:05;97012.22;;;22.59;47.15
47556;BME280;33291;46.222;26.460;2023-08-12T10:42:40;97009.81;;;22.64;46.47
47556;BME280;33291;46.222;26.460;2023-08-12T10:45:08;97002.22;;;22.68;46.24
47556;BME280;33291;46.222;26.460;2023-08-12T10:47:40;97006.31;;;22.77;46.67
47556;BME280;33291;46.222;26.460;2023-08-12T10:50:16;96989.78;;;22.68;45.31
47556;BME280;33291;46.222;26.460;2023-08-12T10:52:42;97002.06;;;22.76;44.90
47556;BME280;33291;46.222;26.460;2023-08-12T10:55:17;96997.13;;;22.86;46.20
47556;BME280;33291;46.222;26.460;2023-08-12T10:57:43;96999.19;;;22.98;45.74
47556;BME280;33291;46.222;26.460;2023-08-12T11:00:19;96998.38;;;23.11;44.92
47556;BME280;33291;46.222;26.460;2023-08-12T11:02:55;96988.53;;;22.91;44.23
47556;BME280;33291;46.222;26.460;2023-08-12T11:05:22;96991.41;;;22.89;45.21
47556;BME280;33291;46.222;26.460;2023-08-12T11:07:58;96984.69;;;22.87;44.98
47556;BME280;33291;46.222;26.460;2023-08-12T11:10:26;96993.88;;;22.84;45.20
47556;BME280;33291;46.222;26.460;2023-08-12T11:15:28;96997.97;;;22.87;44.80
47556;BME280;33291;46.222;26.460;2023-08-12T11:17:54;96988.78;;;22.76;44.32
47556;BME280;33291;46.222;26.460;2023-08-12T11:20:20;96994.69;;;22.65;45.33
47556;BME280;33291;46.222;26.460;2023-08-12T11:22:46;96999.59;;;22.61;45.33
47556;BME280;33291;46.222;26.460;2023-08-12T11:25:13;96971.59;;;22.39;44.79
47556;BME280;33291;46.222;26.460;2023-08-12T11:27:47;96996.31;;;22.52;45.70
47556;BME280;33291;46.222;26.460;2023-08-12T11:30:14;96999.16;;;22.51;45.65
47556;BME280;33291;46.222;26.460;2023-08-12T11:32:47;97002.41;;;22.46;46.00
47556;BME280;33291;46.222;26.460;2023-08-12T11:35:14;96995.88;;;22.42;46.19
47556;BME280;33291;46.222;26.460;2023-08-12T11:37:42;96999.97;;;22.38;46.74
47556;BME280;33291;46.222;26.460;2023-08-12T11:40:09;96998.25;;;22.30;46.50
47556;BME280;33291;46.222;26.460;2023-08-12T11:42:40;97003.16;;;22.27;46.78
47556;BME280;33291;46.222;26.460;2023-08-12T11:45:06;97003.97;;;22.21;47.66
47556;BME280;33291;46.222;26.460;2023-08-12T11:47:36;97006.63;;;22.21;49.26
47556;BME280;33291;46.222;26.460;2023-08-12T11:50:06;96999.25;;;22.09;50.07
47556;BME280;33291;46.222;26.460;2023-08-12T11:52:33;97001.28;;;22.00;51.21
47556;BME280;33291;46.222;26.460;2023-08-12T11:55:00;97001.22;;;21.94;51.54
47556;BME280;33291;46.222;26.460;2023-08-12T11:57:28;96996.09;;;21.86;51.89
47556;BME280;33291;46.222;26.460;2023-08-12T12:00:01;97003.06;;;21.93;51.12
47556;BME280;33291;46.222;26.460;2023-08-12T12:02:28;97003.06;;;21.87;50.36
47556;BME280;33291;46.222;26.460;2023-08-12T12:04:53;96981.81;;;21.80;48.77
47556;BME280;33291;46.222;26.460;2023-08-12T12:07:25;97000.00;;;21.90;49.22
47556;BME280;33291;46.222;26.460;2023-08-12T12:09:55;97007.97;;;21.90;50.34
47556;BME280;33291;46.222;26.460;2023-08-12T12:12:24;96989.97;;;21.78;51.09
47556;BME280;33291;46.222;26.460;2023-08-12T12:14:53;97002.63;;;21.83;51.30
47556;BME280;33291;46.222;26.460;2023-08-12T12:17:22;97006.09;;;21.83;51.62
47556;BME280;33291;46.222;26.460;2023-08-12T12:19:59;97018.34;;;21.85;52.54
47556;BME280;33291;46.222;26.460;2023-08-12T12:22:31;97009.56;;;21.77;52.42
47556;BME280;33291;46.222;26.460;2023-08-12T12:25:06;97013.22;;;21.76;52.78
47556;BME280;33291;46.222;26.460;2023-08-12T12:27:32;97013.34;;;21.68;53.19
47556;BME280;33291;46.222;26.460;2023-08-12T12:29:59;97004.38;;;21.62;53.73
47556;BME280;33291;46.222;26.460;2023-08-12T12:32:25;97009.09;;;21.67;54.09
47556;BME280;33291;46.222;26.460;2023-08-12T12:34:51;97012.13;;;21.64;53.49
47556;BME280;33291;46.222;26.460;2023-08-12T12:37:17;96988.16;;;21.44;53.48
47556;BME280;33291;46.222;26.460;2023-08-12T12:39:43;97019.44;;;21.62;54.71
47556;BME280;33291;46.222;26.460;2023-08-12T12:42:09;97009.25;;;21.59;54.28
47556;BME280;33291;46.222;26.460;2023-08-12T12:44:35;97014.78;;;21.64;53.64
47556;BME280;33291;46.222;26.460;2023-08-12T12:47:00;97004.19;;;21.64;53.86
47556;BME280;33291;46.222;26.460;2023-08-12T12:49:26;97010.09;;;21.66;52.69